Skip Navigation Links
NOAA logo - Click to go to the NOAA homepage
NOAA's National Weather Service
Alaska Aviation Weather Unit
  NWS logo - Click to go to the NWS homepage
Left Navbar Graphic     18 AKDT = 02 GMT

   
NOAA is celebrating 200 years of science, service, and stewardship. Visit the NOAA 200th celebration Web site to learn more.
USA.gov is the U.S. Government's official Web portal to all Federal, state and local government Web resources and services.
Facebook
NWS on Facebook

Important Change Regarding the AAWU Web Presence

 

Over the last several months, the AAWU has been working to navigate its webpages to a nationally supported server. Security, as well as other needs, have necessitated the change.  In the process, we have made an effort to enhance the functionality of our website, as well as some of our products. As of June 20, 2017, aawu.arh.noaa.gov will be discontinued. The new AAWU web address is weather.gov/aawu. It is now live and will run in-parallel with the old site until it is discontinued. Please send any feedback or questions regarding the new webpages to nws.ar.aawu.webauthors@noaa.gov.  Thank you for your patience during this time of transition.
AAWU Home :: Display TAF Add Bookmark
TAF PAGS 242340Z 2500/2524 24010KT P6SM OVC035
      TEMPO 2500/2504 24008G18KT BKN023 OVC035
     FM250600 22005KT P6SM OVC025
     FM251200 14005KT P6SM VCSH SCT015 OVC025
     FM251800 17008KT P6SM VCSH BKN015 OVC025
      AMD LTD TO CLD VIS AND WIND=
METAR PAGS 242056Z AUTO 23006KT 10SM OVC026 09/04 A3027 RMK AO2 SLP251
     T00890039 58002=

METAR PAGS 242156Z AUTO 24008G15KT 10SM BKN026 OVC035 09/04 A3027
 RMK AO2 SLP250 T00940044=

SPECI PAGS 242210Z AUTO 25009KT 10SM SCT026 OVC035 09/04 A3027 RMK
 AO2=

SPECI PAGS 242224Z AUTO 24010G14KT 10SM BKN026 OVC035 09/04 A3027 RMK
     AO2=

METAR PAGS 242256Z AUTO 25008KT 10SM OVC026 09/04 A3026 RMK AO2 SLP248
     T00890039=

SPECI PAGS 242328Z AUTO 23011KT 10SM OVC033 09/04 A3025 RMK AO2=

METAR PAGS 242356Z AUTO 26006KT 10SM OVC033 09/03 A3025 RMK AO2
 SLP245 T00890033 10094 20083 58006=

METAR PAGS 250056Z AUTO 25008KT 10SM OVC041 09/03 A3025 RMK AO2
 SLP242 T00940033=

METAR PAGS 250156Z AUTO 24005KT 10SM OVC031 09/04 A3024 RMK AO2 SLP240
     T00890044=

SPECI PAGS 250209Z AUTO VRB04KT 10SM OVC029 08/04 A3024 RMK AO2=


NOAA's National Weather Service
Alaska Aviation Weather Unit
6930 Sand Lake Road
Anchorage, AK 99502-1845
Disclaimer
Credits
Glossary
Privacy Policy
About Us
Career Opportunities
Contact AAWU Internet Services Site last modified: April, 17th 2012